»·PEaware :: N305EL KDEN-KCOS

N305EL :: KDEN-KCOS

FLIGHT INFORMATION

Flight Status: Arrived
Operator: Privately registered:
United States
More flights under this callsign
Pilot: Cullen C. (26241)
Aircraft: BEECH AIRCRAFT A90-E90 KING AIR
(BE9L)
More flights by this aircraft type
Origin: KDEN Denver Intl
United States
Destination: KCOS City Of Colorado Springs Mun
United States
More flights between these airports :: More routes between these airports
Route: LUFSE V389 ADANE BRK
File this flight plan on PilotEdge
Remarks:
Altitude:
(Current/Filed)
11,000ft
Speed:
(Current/Filed)
200kts
Departed: 23-Oct-20 02:04 PM
Arrived: 23-Oct-20 02:29 PM
Distance/Time
Traveled:
63nm/0:25
Distance/Time
To Go:
Arrived

Flight Plot

Page will automatically refresh every two minutes.

Flight plan parsing failed; only flown route is shown


Map Options




Map Legend


Flown Route
Filed Route
Departure Airport
Arrival Airport
Navaid (VOR, NDB)
Fix

Horizontal Profiles

Position Reports

Time Latitude Longitude Heading Altitude Ground
Speed
23-Oct-20 13:42 39.838416 -104.665340 59 5437ft 0kts
23-Oct-20 13:43 39.838416 -104.665340 59 5437ft 0kts
23-Oct-20 13:45 39.838416 -104.665340 59 5437ft 0kts
23-Oct-20 13:46 39.838416 -104.665340 59 5437ft 0kts
23-Oct-20 13:47 39.838416 -104.665340 59 5437ft 0kts
23-Oct-20 13:48 39.838416 -104.665340 59 5437ft 0kts
23-Oct-20 13:49 39.838416 -104.665340 59 5437ft 0kts
23-Oct-20 13:50 39.838416 -104.665340 59 5437ft 0kts
23-Oct-20 13:51 39.838416 -104.665340 59 5437ft 0kts
23-Oct-20 13:52 39.838416 -104.665340 59 5437ft 0kts
23-Oct-20 13:53 39.838416 -104.665340 59 5437ft 0kts
23-Oct-20 13:54 39.838416 -104.665340 59 5437ft 0kts
23-Oct-20 13:55 39.838416 -104.665340 59 5437ft 0kts
23-Oct-20 13:56 39.838416 -104.665339 59 5437ft 0kts
23-Oct-20 13:56 39.838500 -104.665155 58 5437ft 0kts
23-Oct-20 13:58 39.841076 -104.662550 1 5437ft 17kts
23-Oct-20 13:58 39.844362 -104.662475 4 5437ft 15kts
23-Oct-20 14:00 39.849920 -104.662441 0 5437ft 20kts
23-Oct-20 14:00 39.854569 -104.662384 0 5437ft 18kts
23-Oct-20 14:01 39.859770 -104.662330 0 5437ft 21kts
23-Oct-20 14:02 39.861005 -104.661758 83 5437ft 0kts
23-Oct-20 14:03 39.857829 -104.660192 180 5437ft 82kts
23-Oct-20 14:05 39.837095 -104.659720 162 6440ft 143kts
23-Oct-20 14:05 39.805649 -104.628185 142 7569ft 199kts
23-Oct-20 14:06 39.760061 -104.580337 142 8583ft 219kts
23-Oct-20 14:07 39.708350 -104.540490 168 9583ft 221kts
23-Oct-20 14:08 39.649717 -104.522149 167 10579ft 206kts
23-Oct-20 14:09 39.595198 -104.504852 167 11271ft 208kts
23-Oct-20 14:10 39.536562 -104.486259 167 11273ft 223kts
23-Oct-20 14:11 39.476000 -104.467063 167 11272ft 224kts
23-Oct-20 14:12 39.415631 -104.447952 167 11272ft 222kts
23-Oct-20 14:13 39.356002 -104.429123 168 11273ft 220kts
23-Oct-20 14:14 39.296345 -104.410321 168 11274ft 220kts
23-Oct-20 14:15 39.236868 -104.391613 168 11275ft 220kts
23-Oct-20 14:16 39.185402 -104.415005 220 11068ft 211kts
23-Oct-20 14:17 39.141728 -104.463108 219 10561ft 204kts
23-Oct-20 14:18 39.100161 -104.512407 219 9991ft 200kts
23-Oct-20 14:19 39.060243 -104.555459 223 9994ft 177kts
23-Oct-20 14:20 39.054269 -104.619154 257 9630ft 189kts
23-Oct-20 14:21 39.052210 -104.686164 266 9436ft 186kts
23-Oct-20 14:22 39.020492 -104.712829 178 9238ft 173kts
23-Oct-20 14:23 38.979055 -104.712896 192 9003ft 135kts
23-Oct-20 14:24 38.940342 -104.715752 186 8388ft 143kts
23-Oct-20 14:25 38.900933 -104.715997 176 7702ft 144kts
23-Oct-20 14:26 38.866894 -104.715878 178 7001ft 98kts
23-Oct-20 14:27 38.839315 -104.715826 179 6446ft 101kts
23-Oct-20 14:28 38.816612 -104.715952 179 6098ft 18kts
23-Oct-20 14:29 38.814260 -104.715946 179 6098ft 18kts
23-Oct-20 14:30 38.812540 -104.719300 237 6098ft 13kts
23-Oct-20 14:31 38.808751 -104.720566 81 6098ft 0kts
23-Oct-20 14:32 38.808751 -104.720551 91 6098ft 0kts
23-Oct-20 14:33 38.808751 -104.720552 91 6098ft 0kts
23-Oct-20 14:34 38.808751 -104.720552 91 6098ft 0kts
23-Oct-20 14:35 38.808751 -104.720552 91 6098ft 0kts
23-Oct-20 14:36 38.808751 -104.720552 91 6098ft 0kts
23-Oct-20 14:37 38.808751 -104.720552 91 6098ft 0kts
23-Oct-20 14:38 38.808751 -104.720552 91 6098ft 0kts
23-Oct-20 14:39 38.808751 -104.720552 91 6098ft 0kts

Navigation Log

Ident Type
Flight plan parsing failed, navigation log unavailable